createdAt,value
2023-01-07T00:01:18.873Z,43.42
2023-01-07T00:03:47.040Z,42.50
2023-01-07T00:06:17.028Z,40.63
2023-01-07T00:08:45.954Z,41.55
2023-01-07T00:11:24.252Z,41.65
2023-01-07T00:13:54.168Z,40.85
2023-01-07T00:16:25.449Z,45.70
2023-01-07T00:18:54.067Z,44.28
2023-01-07T00:21:22.678Z,45.05
2023-01-07T00:23:54.446Z,45.63
2023-01-07T00:26:23.091Z,42.05
2023-01-07T00:28:51.611Z,40.00
2023-01-07T00:31:24.504Z,42.22
2023-01-07T00:33:55.108Z,42.95
2023-01-07T00:36:23.738Z,43.20
2023-01-07T00:39:05.878Z,45.53
2023-01-07T00:41:33.318Z,37.97
2023-01-07T00:44:00.475Z,43.17
2023-01-07T00:46:27.683Z,44.78
2023-01-07T00:48:54.711Z,41.92
2023-01-07T00:51:21.962Z,44.55
2023-01-07T00:53:49.181Z,41.58
2023-01-07T00:56:20.227Z,42.05
2023-01-07T00:58:47.358Z,44.05
2023-01-07T01:01:15.210Z,47.13
2023-01-07T01:03:42.460Z,45.88
2023-01-07T01:06:13.703Z,41.00
2023-01-07T01:08:42.933Z,47.05
2023-01-07T01:11:12.008Z,45.15
2023-01-07T01:13:39.774Z,42.70
2023-01-07T01:16:15.636Z,47.22
2023-01-07T01:18:43.673Z,40.58
2023-01-07T01:21:13.610Z,46.67
2023-01-07T01:23:41.177Z,45.35
2023-01-07T01:26:13.872Z,46.80
2023-01-07T01:28:42.022Z,41.92
2023-01-07T01:31:10.756Z,47.40
2023-01-07T01:33:53.985Z,47.38
2023-01-07T01:36:21.320Z,43.88
2023-01-07T01:38:48.529Z,44.60
2023-01-07T01:41:19.084Z,45.47
2023-01-07T01:43:48.371Z,50.97
2023-01-07T01:46:36.553Z,47.00
2023-01-07T01:49:08.619Z,43.58
2023-01-07T01:51:40.351Z,47.83
2023-01-07T01:54:12.060Z,43.70
2023-01-07T01:56:45.127Z,43.20
2023-01-07T01:59:17.695Z,48.92
2023-01-07T02:01:45.628Z,47.08
2023-01-07T02:04:18.789Z,41.97
2023-01-07T02:07:19.443Z,45.95
2023-01-07T02:10:01.892Z,46.67
2023-01-07T02:12:42.560Z,47.42
2023-01-07T02:15:16.529Z,48.38
2023-01-07T02:18:14.696Z,43.05
2023-01-07T02:20:47.983Z,45.47
2023-01-07T02:23:24.006Z,45.28
2023-01-07T02:25:50.925Z,47.53
2023-01-07T02:28:53.197Z,42.70
2023-01-07T02:31:38.805Z,46.97
2023-01-07T02:34:06.003Z,44.97
2023-01-07T02:36:43.468Z,42.92
2023-01-07T02:39:25.619Z,41.05
2023-01-07T02:42:18.549Z,39.00
2023-01-07T02:45:14.313Z,35.22
2023-01-07T02:47:52.326Z,36.88
2023-01-07T02:50:20.181Z,27.88
2023-01-07T02:52:47.511Z,26.15
2023-01-07T02:55:22.069Z,22.38
2023-01-07T02:58:11.090Z,21.27
2023-01-07T03:01:19.656Z,21.02
2023-01-07T03:04:05.334Z,18.10
2023-01-07T03:06:50.427Z,20.33
2023-01-07T03:09:46.580Z,15.38
2023-01-07T03:12:34.823Z,17.90
2023-01-07T03:15:26.542Z,15.30
2023-01-07T03:18:24.299Z,13.88
2023-01-07T03:20:56.806Z,15.98
2023-01-07T03:23:27.550Z,14.15
2023-01-07T03:25:57.901Z,14.57
2023-01-07T03:28:30.364Z,14.88
2023-01-07T03:30:58.610Z,14.65
2023-01-07T03:34:00.312Z,15.27
2023-01-07T03:36:36.181Z,11.98
2023-01-07T03:39:06.553Z,14.50
2023-01-07T03:41:52.258Z,13.20
2023-01-07T03:44:19.334Z,11.95
2023-01-07T03:46:46.820Z,14.45
2023-01-07T03:49:14.536Z,15.30
2023-01-07T03:51:42.314Z,13.52
2023-01-07T03:54:10.379Z,13.25
2023-01-07T03:56:37.352Z,14.45
2023-01-07T03:59:04.359Z,13.68
2023-01-07T04:01:31.855Z,11.90
2023-01-07T04:04:01.269Z,15.60
2023-01-07T04:06:30.059Z,15.25
2023-01-07T04:08:57.102Z,12.70
2023-01-07T04:11:24.383Z,14.52
2023-01-07T04:13:51.500Z,13.55
2023-01-07T04:16:18.652Z,13.13
2023-01-07T04:18:46.534Z,13.82
2023-01-07T04:21:13.518Z,15.20
2023-01-07T04:23:41.412Z,16.13
2023-01-07T04:26:08.631Z,12.55
2023-01-07T04:28:39.279Z,16.05
2023-01-07T04:31:06.552Z,14.45
2023-01-07T04:33:36.036Z,14.13
2023-01-07T04:36:03.805Z,13.55
2023-01-07T04:38:31.133Z,15.82
2023-01-07T04:40:58.386Z,15.57
2023-01-07T04:43:25.444Z,13.93
2023-01-07T04:45:52.437Z,16.30
2023-01-07T04:48:19.438Z,16.25
2023-01-07T04:50:49.393Z,15.15
2023-01-07T04:53:17.252Z,15.52
2023-01-07T04:55:46.572Z,14.85
2023-01-07T04:58:14.145Z,14.00
2023-01-07T05:00:41.528Z,15.43
2023-01-07T05:03:09.480Z,17.13
2023-01-07T05:05:37.418Z,15.35
2023-01-07T05:08:04.917Z,16.55
2023-01-07T05:10:33.049Z,16.83
2023-01-07T05:13:01.107Z,13.77
2023-01-07T05:15:28.139Z,15.25
2023-01-07T05:17:56.114Z,16.77
2023-01-07T05:20:25.490Z,19.05
2023-01-07T05:22:53.390Z,13.63
2023-01-07T05:25:20.475Z,15.57
2023-01-07T05:27:47.529Z,17.58
2023-01-07T05:30:14.933Z,18.63
2023-01-07T05:32:41.907Z,16.80
2023-01-07T05:35:09.305Z,14.30
2023-01-07T05:37:36.670Z,16.10
2023-01-07T05:40:04.604Z,15.93
2023-01-07T05:42:31.655Z,17.58
2023-01-07T05:44:59.797Z,15.25
2023-01-07T05:47:26.817Z,18.95
2023-01-07T05:49:53.834Z,18.80
2023-01-07T05:52:20.916Z,16.20
2023-01-07T05:54:48.170Z,17.42
2023-01-07T05:57:15.126Z,19.60
2023-01-07T05:59:42.125Z,16.65
2023-01-07T06:02:09.023Z,17.60
2023-01-07T06:04:36.035Z,15.77
2023-01-07T06:07:03.149Z,16.88
2023-01-07T06:09:30.242Z,17.02
2023-01-07T06:11:57.517Z,15.38
2023-01-07T06:14:24.458Z,19.42
2023-01-07T06:16:51.460Z,16.40
2023-01-07T06:19:18.515Z,17.73
2023-01-07T06:21:45.510Z,15.00
2023-01-07T06:24:12.486Z,15.88
2023-01-07T06:26:39.476Z,16.38
2023-01-07T06:29:07.181Z,15.57
2023-01-07T06:31:34.269Z,17.35
2023-01-07T06:34:01.247Z,18.70
2023-01-07T06:36:28.311Z,17.30
2023-01-07T06:38:55.378Z,18.70
2023-01-07T06:41:22.471Z,14.70
2023-01-07T06:43:49.422Z,18.15
2023-01-07T06:46:16.731Z,18.38
2023-01-07T06:48:43.811Z,17.08
2023-01-07T06:51:10.787Z,17.15
2023-01-07T06:53:37.885Z,17.63
2023-01-07T06:56:05.194Z,15.63
2023-01-07T06:58:32.198Z,19.10
2023-01-07T07:01:07.376Z,17.83
2023-01-07T07:03:34.474Z,18.67
2023-01-07T07:06:01.535Z,18.25
2023-01-07T07:08:28.661Z,16.63
2023-01-07T07:10:55.892Z,18.25
2023-01-07T07:13:23.026Z,17.65
2023-01-07T07:15:50.131Z,17.48
2023-01-07T07:18:18.187Z,18.48
2023-01-07T07:20:48.180Z,18.77
2023-01-07T07:23:15.406Z,19.17
2023-01-07T07:25:42.715Z,19.67
2023-01-07T07:28:09.888Z,17.40
2023-01-07T07:30:45.579Z,20.33
2023-01-07T07:33:15.076Z,18.80
2023-01-07T07:35:42.489Z,18.35
2023-01-07T07:38:09.786Z,17.45
2023-01-07T07:40:36.929Z,19.85
2023-01-07T07:43:11.325Z,18.92
2023-01-07T07:45:43.427Z,16.35
2023-01-07T07:48:12.958Z,19.70
2023-01-07T07:50:40.002Z,24.58
2023-01-07T07:53:10.107Z,21.63
2023-01-07T07:55:38.469Z,22.58
2023-01-07T07:58:05.612Z,21.02
2023-01-07T08:00:33.046Z,19.33
2023-01-07T08:03:00.419Z,22.55
2023-01-07T08:05:28.319Z,23.88
2023-01-07T08:07:56.054Z,19.83
2023-01-07T08:10:24.051Z,25.90
2023-01-07T08:12:51.062Z,19.75
2023-01-07T08:15:18.286Z,20.95
2023-01-07T08:17:45.259Z,21.35
2023-01-07T08:20:12.594Z,18.35
2023-01-07T08:22:39.640Z,21.13
2023-01-07T08:25:07.234Z,20.95
2023-01-07T08:27:34.539Z,22.40
2023-01-07T08:30:01.543Z,20.52
2023-01-07T08:32:28.525Z,23.23
2023-01-07T08:34:56.138Z,22.17
2023-01-07T08:37:23.140Z,21.20
2023-01-07T08:39:50.108Z,23.10
2023-01-07T08:42:17.037Z,23.40
2023-01-07T08:44:44.060Z,22.88
2023-01-07T08:47:11.092Z,21.48
2023-01-07T08:49:38.114Z,22.17
2023-01-07T08:52:05.518Z,20.92
2023-01-07T08:54:32.571Z,18.95
2023-01-07T08:56:59.656Z,24.25
2023-01-07T08:59:26.783Z,20.42
2023-01-07T09:01:53.923Z,20.40
2023-01-07T09:04:21.166Z,22.38
2023-01-07T09:06:48.127Z,21.85
2023-01-07T09:09:16.657Z,19.42
2023-01-07T09:11:43.816Z,22.75
2023-01-07T09:14:10.769Z,22.83
2023-01-07T09:16:37.710Z,19.98
2023-01-07T09:19:04.976Z,19.65
2023-01-07T09:21:31.868Z,19.35
2023-01-07T09:23:58.874Z,20.00
2023-01-07T09:26:25.860Z,20.35
2023-01-07T09:28:52.831Z,21.98
2023-01-07T09:31:19.899Z,20.67
2023-01-07T09:33:46.888Z,20.25
2023-01-07T09:36:14.086Z,22.23
2023-01-07T09:38:41.243Z,20.92
2023-01-07T09:41:28.761Z,20.10
2023-01-07T09:44:01.993Z,21.80
2023-01-07T09:46:32.360Z,23.50
2023-01-07T09:49:03.776Z,21.27
2023-01-07T09:51:38.268Z,21.00
2023-01-07T09:54:15.075Z,19.27
2023-01-07T09:56:42.286Z,23.83
2023-01-07T09:59:10.962Z,23.60
2023-01-07T10:01:55.323Z,22.17
2023-01-07T10:04:42.113Z,21.10
2023-01-07T10:07:12.198Z,21.10
2023-01-07T10:09:48.232Z,20.48
2023-01-07T10:12:45.896Z,22.35
2023-01-07T10:15:23.779Z,24.15
2023-01-07T10:18:06.879Z,18.13
2023-01-07T10:20:47.355Z,19.60
2023-01-07T10:23:23.986Z,17.65
2023-01-07T10:25:54.553Z,20.00
2023-01-07T10:28:43.095Z,19.70
2023-01-07T10:31:19.461Z,18.35
2023-01-07T10:33:48.643Z,20.70
2023-01-07T10:36:21.757Z,19.83
2023-01-07T10:39:16.986Z,23.65
2023-01-07T10:41:55.656Z,19.75
2023-01-07T10:44:31.324Z,21.75
2023-01-07T10:49:41.742Z,21.20
2023-01-07T10:52:38.266Z,23.40
2023-01-07T10:55:13.248Z,24.38
2023-01-07T10:57:41.039Z,23.88
2023-01-07T11:00:14.348Z,23.35
2023-01-07T11:02:48.945Z,23.40
2023-01-07T11:05:21.057Z,24.52
2023-01-07T11:07:52.476Z,22.25
2023-01-07T11:10:24.175Z,24.83
2023-01-07T11:13:01.575Z,22.13
2023-01-07T11:15:34.378Z,25.05
2023-01-07T11:18:23.677Z,23.75
2023-01-07T11:20:53.142Z,24.50
2023-01-07T11:23:42.811Z,28.02
2023-01-07T11:26:27.100Z,26.13
2023-01-07T11:29:00.121Z,21.10
2023-01-07T11:31:54.899Z,24.90
2023-01-07T11:35:00.970Z,25.85
2023-01-07T11:37:38.514Z,21.85
2023-01-07T11:40:22.318Z,25.17
2023-01-07T11:42:59.620Z,27.13
2023-01-07T11:45:31.031Z,27.05
2023-01-07T11:47:58.024Z,26.55
2023-01-07T11:50:43.494Z,23.33
2023-01-07T11:53:16.311Z,26.23
2023-01-07T11:56:11.270Z,26.75
2023-01-07T11:58:45.036Z,27.17
2023-01-07T12:01:21.858Z,28.80
2023-01-07T12:03:52.026Z,29.05
2023-01-07T12:06:26.154Z,30.13
2023-01-07T12:08:55.219Z,28.35
2023-01-07T12:11:22.754Z,32.30
2023-01-07T12:13:55.378Z,28.48
2023-01-07T12:16:28.171Z,30.60
2023-01-07T12:19:04.165Z,34.95
2023-01-07T12:21:49.436Z,31.10
2023-01-07T12:25:00.600Z,26.40
2023-01-07T12:27:39.687Z,32.90
2023-01-07T12:30:30.517Z,34.80
2023-01-07T12:33:00.207Z,31.48
2023-01-07T12:35:36.923Z,36.30
2023-01-07T12:38:17.906Z,33.72
2023-01-07T12:40:49.815Z,31.27
2023-01-07T12:43:16.714Z,33.90
2023-01-07T12:45:58.245Z,33.95
2023-01-07T12:48:42.747Z,37.13
2023-01-07T12:51:18.435Z,36.08
2023-01-07T12:56:43.487Z,30.48
2023-01-07T12:59:45.960Z,34.33
2023-01-07T13:02:48.658Z,34.25
2023-01-07T13:05:25.950Z,32.63
2023-01-07T13:08:09.229Z,27.65
2023-01-07T13:10:43.147Z,28.75
2023-01-07T13:13:34.437Z,34.15
2023-01-07T13:16:01.778Z,30.70
2023-01-07T13:18:29.867Z,28.95
2023-01-07T13:21:13.039Z,32.50
2023-01-07T13:24:03.535Z,29.30
2023-01-07T13:26:45.685Z,33.00
2023-01-07T13:29:47.045Z,30.88
2023-01-07T13:32:45.515Z,29.85
2023-01-07T13:35:27.843Z,30.75
2023-01-07T13:38:08.062Z,30.60
2023-01-07T13:40:37.813Z,34.80
2023-01-07T13:43:43.192Z,32.95
2023-01-07T13:46:15.824Z,29.70
2023-01-07T13:48:50.062Z,33.42
2023-01-07T13:51:27.647Z,29.38
2023-01-07T13:53:54.979Z,28.17
2023-01-07T13:56:22.592Z,29.70
2023-01-07T13:58:55.329Z,32.72
2023-01-07T14:01:35.914Z,30.60
2023-01-07T14:04:08.650Z,35.03
2023-01-07T14:06:43.164Z,30.55
2023-01-07T14:09:16.017Z,32.58
2023-01-07T14:11:51.580Z,37.08
2023-01-07T14:14:38.315Z,37.38
2023-01-07T14:17:23.201Z,32.08
2023-01-07T14:20:12.993Z,32.42
2023-01-07T14:22:55.712Z,35.08
2023-01-07T14:25:56.310Z,35.00
2023-01-07T14:28:44.655Z,32.65
2023-01-07T14:31:26.560Z,34.22
2023-01-07T14:34:01.598Z,32.92
2023-01-07T14:37:01.268Z,29.27
2023-01-07T14:39:31.408Z,33.30
2023-01-07T14:42:20.363Z,33.75
2023-01-07T14:44:51.324Z,34.60
2023-01-07T14:47:52.623Z,28.55
2023-01-07T14:50:55.232Z,30.45
2023-01-07T14:53:46.677Z,34.20
2023-01-07T14:56:52.168Z,31.15
2023-01-07T14:59:19.151Z,33.67
2023-01-07T15:02:13.503Z,33.17
2023-01-07T15:05:00.993Z,36.20
2023-01-07T15:07:34.028Z,35.22
2023-01-07T15:10:27.436Z,35.45
2023-01-07T15:13:15.314Z,36.95
2023-01-07T15:16:04.467Z,34.75
2023-01-07T15:18:42.111Z,38.75
2023-01-07T15:21:28.003Z,36.80
2023-01-07T15:24:16.444Z,35.83
2023-01-07T15:26:48.420Z,34.42
2023-01-07T15:29:38.944Z,32.28
2023-01-07T15:32:17.751Z,33.95
2023-01-07T15:34:44.834Z,34.47
2023-01-07T15:37:14.215Z,39.22
2023-01-07T15:39:52.780Z,35.47
2023-01-07T15:42:25.861Z,38.28
2023-01-07T15:44:56.149Z,37.47
2023-01-07T15:47:34.845Z,38.97
2023-01-07T15:50:23.307Z,32.83
2023-01-07T15:52:56.661Z,35.75
2023-01-07T15:55:28.672Z,47.25
2023-01-07T15:58:11.281Z,36.80
2023-01-07T16:00:38.752Z,41.08
2023-01-07T16:03:06.522Z,36.88
2023-01-07T16:05:37.554Z,41.63
2023-01-07T16:08:05.167Z,37.95
2023-01-07T16:10:35.788Z,36.83
2023-01-07T16:13:16.175Z,40.45
2023-01-07T16:15:43.115Z,34.45
2023-01-07T16:18:10.072Z,44.10
2023-01-07T16:20:40.920Z,36.20
2023-01-07T16:23:20.253Z,39.95
2023-01-07T16:25:55.423Z,39.38
2023-01-07T16:28:27.296Z,45.30
2023-01-07T16:30:55.950Z,43.00
2023-01-07T16:33:26.763Z,44.40
2023-01-07T16:35:57.809Z,41.30
2023-01-07T16:38:25.474Z,39.65
2023-01-07T16:40:53.430Z,44.40
2023-01-07T16:43:43.428Z,43.20
2023-01-07T16:46:16.641Z,46.78
2023-01-07T16:48:43.782Z,44.45
2023-01-07T16:51:37.641Z,46.05
2023-01-07T16:54:31.169Z,42.42
2023-01-07T16:57:04.253Z,42.42
2023-01-07T16:59:38.215Z,40.47
2023-01-07T17:02:27.139Z,42.47
2023-01-07T17:04:56.733Z,42.28
2023-01-07T17:07:28.485Z,45.28
2023-01-07T17:09:57.888Z,41.80
2023-01-07T17:12:35.258Z,38.92
2023-01-07T17:15:02.876Z,41.40
2023-01-07T17:17:32.377Z,40.70
2023-01-07T17:20:19.006Z,38.50
2023-01-07T17:22:47.241Z,43.33
2023-01-07T17:25:22.580Z,45.03
2023-01-07T17:27:56.605Z,39.50
2023-01-07T17:30:31.529Z,36.45
2023-01-07T17:32:58.519Z,42.13
2023-01-07T17:35:26.118Z,38.00
2023-01-07T17:37:54.348Z,40.88
2023-01-07T17:40:21.360Z,43.53
2023-01-07T17:43:08.237Z,37.13
2023-01-07T17:45:35.737Z,38.70
2023-01-07T17:48:02.815Z,36.13
2023-01-07T17:50:36.318Z,35.60
2023-01-07T17:53:04.515Z,38.75
2023-01-07T17:58:28.967Z,34.00
2023-01-07T18:00:57.694Z,37.30
2023-01-07T18:03:25.392Z,39.45
2023-01-07T18:05:56.858Z,38.13
2023-01-07T18:08:24.097Z,34.10
2023-01-07T18:11:13.839Z,38.50
2023-01-07T18:13:41.933Z,39.90
2023-01-07T18:16:12.593Z,42.72
2023-01-07T18:18:39.721Z,35.88
2023-01-07T18:21:06.742Z,37.35
2023-01-07T18:23:33.757Z,40.00
2023-01-07T18:26:01.893Z,43.22
2023-01-07T18:28:31.268Z,37.50
2023-01-07T18:30:58.232Z,38.22
2023-01-07T18:33:25.539Z,37.35
2023-01-07T18:35:52.561Z,39.55
2023-01-07T18:38:19.505Z,38.08
2023-01-07T18:40:46.507Z,38.28
2023-01-07T18:43:15.289Z,38.28
2023-01-07T18:45:47.059Z,38.38
2023-01-07T18:48:16.118Z,39.35
2023-01-07T18:50:45.846Z,34.95
2023-01-07T18:53:13.808Z,40.47
2023-01-07T18:55:42.152Z,36.58
2023-01-07T18:58:14.364Z,40.30
2023-01-07T19:00:42.130Z,39.17
2023-01-07T19:03:10.670Z,36.47
2023-01-07T19:05:40.569Z,38.83
2023-01-07T19:08:07.596Z,40.08
2023-01-07T19:10:34.791Z,40.40
2023-01-07T19:13:01.864Z,35.90
2023-01-07T19:15:33.813Z,41.65
2023-01-07T19:18:01.921Z,40.38
2023-01-07T19:20:28.995Z,43.22
2023-01-07T19:23:00.301Z,38.78
2023-01-07T19:25:28.886Z,40.30
2023-01-07T19:27:56.034Z,37.78
2023-01-07T19:30:23.550Z,41.80
2023-01-07T19:32:51.141Z,40.42
2023-01-07T19:35:18.333Z,38.20
2023-01-07T19:37:45.251Z,43.55
2023-01-07T19:40:13.429Z,37.47
2023-01-07T19:42:40.416Z,39.25
2023-01-07T19:45:07.871Z,38.67
2023-01-07T19:47:35.387Z,40.20
2023-01-07T19:50:02.472Z,38.80
2023-01-07T19:52:29.485Z,34.25
2023-01-07T19:54:56.630Z,35.47
2023-01-07T19:57:23.625Z,36.75
2023-01-07T19:59:50.655Z,39.53
2023-01-07T20:02:17.960Z,38.25
2023-01-07T20:04:45.108Z,37.72
2023-01-07T20:07:12.119Z,44.08
2023-01-07T20:09:40.554Z,42.70
2023-01-07T20:12:07.850Z,43.35
2023-01-07T20:14:34.869Z,40.33
2023-01-07T20:17:01.940Z,46.42
2023-01-07T20:19:30.297Z,44.67
2023-01-07T20:21:57.419Z,41.88
2023-01-07T20:24:24.475Z,39.20
2023-01-07T20:26:53.203Z,43.05
2023-01-07T20:29:21.622Z,46.95
2023-01-07T20:31:48.655Z,45.13
2023-01-07T20:34:15.758Z,50.60
2023-01-07T20:36:42.735Z,48.17
2023-01-07T20:39:09.729Z,46.45
2023-01-07T20:41:38.829Z,41.45
2023-01-07T20:44:08.739Z,50.05
2023-01-07T20:46:35.732Z,46.05
2023-01-07T20:49:02.964Z,50.67
2023-01-07T20:51:30.102Z,49.88
2023-01-07T20:53:57.806Z,54.78
2023-01-07T20:56:26.783Z,57.15
2023-01-07T20:58:53.819Z,68.25
2023-01-07T21:01:22.541Z,59.40
2023-01-07T21:03:50.310Z,54.50
2023-01-07T21:06:19.823Z,61.47
2023-01-07T21:08:48.005Z,58.35
2023-01-07T21:11:18.700Z,56.85
2023-01-07T21:13:46.844Z,52.60
2023-01-07T21:16:15.058Z,58.80
2023-01-07T21:18:42.950Z,55.45
2023-01-07T21:21:21.206Z,55.78
2023-01-07T21:23:49.414Z,54.10
2023-01-07T21:26:18.119Z,53.30
2023-01-07T21:28:45.691Z,58.15
2023-01-07T21:31:14.110Z,55.42
2023-01-07T21:33:41.820Z,57.92
2023-01-07T21:36:15.400Z,58.83
2023-01-07T21:38:42.935Z,52.67
2023-01-07T21:41:13.101Z,54.50
2023-01-07T21:43:43.598Z,53.47
2023-01-07T21:46:11.156Z,52.97
2023-01-07T21:48:40.296Z,48.88
2023-01-07T21:51:17.854Z,46.08
2023-01-07T21:53:45.206Z,50.13
2023-01-07T21:56:17.437Z,55.33
2023-01-07T21:58:45.905Z,53.00
2023-01-07T22:01:14.199Z,56.17
2023-01-07T22:03:47.701Z,59.72
2023-01-07T22:06:21.222Z,61.13
2023-01-07T22:08:49.439Z,55.78
2023-01-07T22:11:17.933Z,48.05
2023-01-07T22:13:48.760Z,54.60
2023-01-07T22:16:15.710Z,85.55
2023-01-07T22:18:42.759Z,54.70
2023-01-07T22:21:09.803Z,51.65
2023-01-07T22:23:37.819Z,53.63
2023-01-07T22:26:06.698Z,54.08
2023-01-07T22:28:54.353Z,57.38
2023-01-07T22:31:22.769Z,55.05
2023-01-07T22:33:50.150Z,46.88
2023-01-07T22:36:38.209Z,54.97
2023-01-07T22:39:17.228Z,51.70
2023-01-07T22:41:45.082Z,56.53
2023-01-07T22:44:24.996Z,55.50
2023-01-07T22:46:53.324Z,57.75
2023-01-07T22:49:23.604Z,49.00
2023-01-07T22:51:50.611Z,52.05
2023-01-07T22:54:18.200Z,58.10
2023-01-07T22:56:45.902Z,48.70
2023-01-07T22:59:12.897Z,55.08
2023-01-07T23:01:40.152Z,55.15
2023-01-07T23:04:07.343Z,54.05
2023-01-07T23:06:34.384Z,52.78
2023-01-07T23:09:01.473Z,56.08
2023-01-07T23:11:47.015Z,52.78
2023-01-07T23:14:18.894Z,53.92
2023-01-07T23:16:46.420Z,52.70
2023-01-07T23:19:14.046Z,58.33
2023-01-07T23:21:43.435Z,53.38
2023-01-07T23:24:11.684Z,52.60
2023-01-07T23:26:39.436Z,50.25
2023-01-07T23:29:07.388Z,54.30
2023-01-07T23:31:35.396Z,55.85
2023-01-07T23:34:04.136Z,47.90
2023-01-07T23:36:31.285Z,50.58
2023-01-07T23:38:58.237Z,50.28
2023-01-07T23:41:25.289Z,52.13
2023-01-07T23:43:52.310Z,56.42
2023-01-07T23:46:19.254Z,53.17
2023-01-07T23:48:46.512Z,52.45
2023-01-07T23:51:19.402Z,51.78
2023-01-07T23:53:47.126Z,46.13
2023-01-07T23:56:14.905Z,50.95
2023-01-07T23:58:41.851Z,51.45
